sensor_id;sensor_type;location;lat;lon;timestamp;P1;durP1;ratioP1;P2;durP2;ratioP2
52057;SDS011;38063;53.210;6.504;2023-08-06T00:00:23;11.65;;;8.05;;
52057;SDS011;38063;53.210;6.504;2023-08-06T00:02:49;11.95;;;8.10;;
52057;SDS011;38063;53.210;6.504;2023-08-06T00:05:15;11.32;;;7.82;;
52057;SDS011;38063;53.210;6.504;2023-08-06T00:07:46;11.48;;;7.57;;
52057;SDS011;38063;53.210;6.504;2023-08-06T00:10:12;10.90;;;7.97;;
52057;SDS011;38063;53.210;6.504;2023-08-06T00:12:38;11.15;;;7.70;;
52057;SDS011;38063;53.210;6.504;2023-08-06T00:15:04;13.32;;;8.43;;
52057;SDS011;38063;53.210;6.504;2023-08-06T00:17:29;11.45;;;8.10;;
52057;SDS011;38063;53.210;6.504;2023-08-06T00:19:55;13.27;;;7.55;;
52057;SDS011;38063;53.210;6.504;2023-08-06T00:22:21;10.10;;;7.85;;
52057;SDS011;38063;53.210;6.504;2023-08-06T00:24:46;9.77;;;8.02;;
52057;SDS011;38063;53.210;6.504;2023-08-06T00:27:12;10.57;;;7.90;;
52057;SDS011;38063;53.210;6.504;2023-08-06T00:29:38;14.38;;;8.07;;
52057;SDS011;38063;53.210;6.504;2023-08-06T00:32:03;10.85;;;7.47;;
52057;SDS011;38063;53.210;6.504;2023-08-06T00:34:29;11.07;;;7.75;;
52057;SDS011;38063;53.210;6.504;2023-08-06T00:36:55;10.55;;;7.90;;
52057;SDS011;38063;53.210;6.504;2023-08-06T00:39:20;11.50;;;7.50;;
52057;SDS011;38063;53.210;6.504;2023-08-06T00:41:46;11.55;;;7.75;;
52057;SDS011;38063;53.210;6.504;2023-08-06T00:44:12;10.55;;;7.78;;
52057;SDS011;38063;53.210;6.504;2023-08-06T00:46:37;11.15;;;7.60;;
52057;SDS011;38063;53.210;6.504;2023-08-06T00:49:04;8.65;;;7.00;;
52057;SDS011;38063;53.210;6.504;2023-08-06T00:51:30;10.82;;;7.20;;
52057;SDS011;38063;53.210;6.504;2023-08-06T00:53:57;10.43;;;7.15;;
52057;SDS011;38063;53.210;6.504;2023-08-06T00:56:22;10.60;;;7.35;;
52057;SDS011;38063;53.210;6.504;2023-08-06T00:58:50;11.40;;;7.47;;
52057;SDS011;38063;53.210;6.504;2023-08-06T01:01:16;10.50;;;7.68;;
52057;SDS011;38063;53.210;6.504;2023-08-06T01:03:42;10.00;;;7.55;;
52057;SDS011;38063;53.210;6.504;2023-08-06T01:06:07;11.63;;;7.63;;
52057;SDS011;38063;53.210;6.504;2023-08-06T01:08:50;10.88;;;7.85;;
52057;SDS011;38063;53.210;6.504;2023-08-06T01:13:54;13.30;;;8.70;;
52057;SDS011;38063;53.210;6.504;2023-08-06T01:16:26;16.50;;;9.10;;
52057;SDS011;38063;53.210;6.504;2023-08-06T01:18:51;14.88;;;9.23;;
52057;SDS011;38063;53.210;6.504;2023-08-06T01:21:17;12.90;;;8.60;;
52057;SDS011;38063;53.210;6.504;2023-08-06T01:23:44;14.80;;;8.40;;
52057;SDS011;38063;53.210;6.504;2023-08-06T01:28:44;11.40;;;8.88;;
52057;SDS011;38063;53.210;6.504;2023-08-06T01:31:21;11.40;;;7.90;;
52057;SDS011;38063;53.210;6.504;2023-08-06T01:33:49;11.57;;;9.30;;
52057;SDS011;38063;53.210;6.504;2023-08-06T01:36:16;13.18;;;9.20;;
52057;SDS011;38063;53.210;6.504;2023-08-06T01:38:43;11.88;;;8.07;;
52057;SDS011;38063;53.210;6.504;2023-08-06T01:41:09;14.95;;;8.48;;
52057;SDS011;38063;53.210;6.504;2023-08-06T01:43:34;12.30;;;8.25;;
52057;SDS011;38063;53.210;6.504;2023-08-06T01:46:00;12.02;;;8.75;;
52057;SDS011;38063;53.210;6.504;2023-08-06T01:48:26;14.32;;;8.52;;
52057;SDS011;38063;53.210;6.504;2023-08-06T01:50:51;13.30;;;9.00;;
52057;SDS011;38063;53.210;6.504;2023-08-06T01:53:17;10.55;;;8.55;;
52057;SDS011;38063;53.210;6.504;2023-08-06T01:55:47;12.63;;;8.35;;
52057;SDS011;38063;53.210;6.504;2023-08-06T01:58:13;12.60;;;9.45;;
52057;SDS011;38063;53.210;6.504;2023-08-06T02:00:39;9.93;;;8.38;;
52057;SDS011;38063;53.210;6.504;2023-08-06T02:03:05;14.80;;;9.52;;
52057;SDS011;38063;53.210;6.504;2023-08-06T02:05:31;14.63;;;8.52;;
52057;SDS011;38063;53.210;6.504;2023-08-06T02:07:57;12.57;;;8.90;;
52057;SDS011;38063;53.210;6.504;2023-08-06T02:10:23;13.73;;;9.95;;
52057;SDS011;38063;53.210;6.504;2023-08-06T02:12:48;15.40;;;9.75;;
52057;SDS011;38063;53.210;6.504;2023-08-06T02:15:14;13.88;;;9.45;;
52057;SDS011;38063;53.210;6.504;2023-08-06T02:17:40;15.07;;;9.90;;
52057;SDS011;38063;53.210;6.504;2023-08-06T02:20:06;17.38;;;10.55;;
52057;SDS011;38063;53.210;6.504;2023-08-06T02:22:32;14.38;;;10.60;;
52057;SDS011;38063;53.210;6.504;2023-08-06T02:24:58;13.85;;;10.48;;
52057;SDS011;38063;53.210;6.504;2023-08-06T02:27:24;15.40;;;10.30;;
52057;SDS011;38063;53.210;6.504;2023-08-06T02:29:50;12.38;;;10.07;;
52057;SDS011;38063;53.210;6.504;2023-08-06T02:32:15;15.02;;;10.85;;
52057;SDS011;38063;53.210;6.504;2023-08-06T02:34:41;16.38;;;10.60;;
52057;SDS011;38063;53.210;6.504;2023-08-06T02:37:06;17.58;;;11.25;;
52057;SDS011;38063;53.210;6.504;2023-08-06T02:39:32;18.02;;;11.50;;
52057;SDS011;38063;53.210;6.504;2023-08-06T02:41:59;17.05;;;11.63;;
52057;SDS011;38063;53.210;6.504;2023-08-06T02:44:28;15.20;;;11.52;;
52057;SDS011;38063;53.210;6.504;2023-08-06T02:46:53;14.75;;;10.88;;
52057;SDS011;38063;53.210;6.504;2023-08-06T02:49:19;18.70;;;11.02;;
52057;SDS011;38063;53.210;6.504;2023-08-06T02:51:45;16.30;;;11.02;;
52057;SDS011;38063;53.210;6.504;2023-08-06T02:54:10;14.52;;;11.48;;
52057;SDS011;38063;53.210;6.504;2023-08-06T02:56:36;13.57;;;10.80;;
52057;SDS011;38063;53.210;6.504;2023-08-06T02:59:02;16.75;;;11.18;;
52057;SDS011;38063;53.210;6.504;2023-08-06T03:01:28;14.07;;;10.20;;
52057;SDS011;38063;53.210;6.504;2023-08-06T03:03:54;15.73;;;9.63;;
52057;SDS011;38063;53.210;6.504;2023-08-06T03:06:19;14.23;;;10.48;;
52057;SDS011;38063;53.210;6.504;2023-08-06T03:08:45;12.48;;;9.45;;
52057;SDS011;38063;53.210;6.504;2023-08-06T03:11:11;14.90;;;9.48;;
52057;SDS011;38063;53.210;6.504;2023-08-06T03:13:36;12.57;;;9.32;;
52057;SDS011;38063;53.210;6.504;2023-08-06T03:16:02;14.73;;;9.48;;
52057;SDS011;38063;53.210;6.504;2023-08-06T03:18:28;14.60;;;9.82;;
52057;SDS011;38063;53.210;6.504;2023-08-06T03:20:54;12.35;;;9.80;;
52057;SDS011;38063;53.210;6.504;2023-08-06T03:23:20;17.13;;;10.60;;
52057;SDS011;38063;53.210;6.504;2023-08-06T03:25:46;15.27;;;10.70;;
52057;SDS011;38063;53.210;6.504;2023-08-06T03:28:12;13.60;;;9.90;;
52057;SDS011;38063;53.210;6.504;2023-08-06T03:30:38;16.08;;;9.38;;
52057;SDS011;38063;53.210;6.504;2023-08-06T03:33:03;13.48;;;9.35;;
52057;SDS011;38063;53.210;6.504;2023-08-06T03:35:29;12.00;;;9.32;;
52057;SDS011;38063;53.210;6.504;2023-08-06T03:37:55;15.25;;;9.38;;
52057;SDS011;38063;53.210;6.504;2023-08-06T03:40:21;14.75;;;10.40;;
52057;SDS011;38063;53.210;6.504;2023-08-06T03:42:46;14.20;;;10.02;;
52057;SDS011;38063;53.210;6.504;2023-08-06T03:45:12;13.05;;;9.40;;
52057;SDS011;38063;53.210;6.504;2023-08-06T03:47:38;13.43;;;10.35;;
52057;SDS011;38063;53.210;6.504;2023-08-06T03:50:03;13.85;;;10.23;;
52057;SDS011;38063;53.210;6.504;2023-08-06T03:52:29;13.80;;;9.40;;
52057;SDS011;38063;53.210;6.504;2023-08-06T03:54:55;13.68;;;9.18;;
52057;SDS011;38063;53.210;6.504;2023-08-06T03:57:21;12.10;;;9.35;;
52057;SDS011;38063;53.210;6.504;2023-08-06T03:59:46;13.45;;;9.35;;
52057;SDS011;38063;53.210;6.504;2023-08-06T04:02:12;10.32;;;8.60;;
52057;SDS011;38063;53.210;6.504;2023-08-06T04:04:37;11.68;;;8.55;;
52057;SDS011;38063;53.210;6.504;2023-08-06T04:07:03;12.75;;;8.55;;
52057;SDS011;38063;53.210;6.504;2023-08-06T04:09:29;11.98;;;8.50;;
52057;SDS011;38063;53.210;6.504;2023-08-06T04:11:55;12.68;;;8.75;;
52057;SDS011;38063;53.210;6.504;2023-08-06T04:14:21;11.75;;;9.18;;
52057;SDS011;38063;53.210;6.504;2023-08-06T04:16:46;12.35;;;8.43;;
52057;SDS011;38063;53.210;6.504;2023-08-06T04:19:12;11.68;;;7.68;;
52057;SDS011;38063;53.210;6.504;2023-08-06T04:21:38;12.20;;;7.88;;
52057;SDS011;38063;53.210;6.504;2023-08-06T04:24:03;12.55;;;8.25;;
52057;SDS011;38063;53.210;6.504;2023-08-06T04:26:29;12.88;;;8.60;;
52057;SDS011;38063;53.210;6.504;2023-08-06T04:28:55;12.43;;;8.35;;
52057;SDS011;38063;53.210;6.504;2023-08-06T04:31:21;11.05;;;8.30;;
52057;SDS011;38063;53.210;6.504;2023-08-06T04:33:46;10.70;;;7.75;;
52057;SDS011;38063;53.210;6.504;2023-08-06T04:36:12;9.45;;;8.10;;
52057;SDS011;38063;53.210;6.504;2023-08-06T04:38:38;11.00;;;8.68;;
52057;SDS011;38063;53.210;6.504;2023-08-06T04:41:06;13.88;;;8.05;;
52057;SDS011;38063;53.210;6.504;2023-08-06T04:43:32;13.43;;;7.85;;
52057;SDS011;38063;53.210;6.504;2023-08-06T04:45:57;10.15;;;7.80;;
52057;SDS011;38063;53.210;6.504;2023-08-06T04:48:23;17.10;;;8.38;;
52057;SDS011;38063;53.210;6.504;2023-08-06T04:50:49;11.73;;;7.90;;
52057;SDS011;38063;53.210;6.504;2023-08-06T04:53:15;11.00;;;7.93;;
52057;SDS011;38063;53.210;6.504;2023-08-06T04:55:41;10.68;;;7.97;;
52057;SDS011;38063;53.210;6.504;2023-08-06T04:58:09;12.77;;;8.32;;
52057;SDS011;38063;53.210;6.504;2023-08-06T05:00:35;11.00;;;7.90;;
52057;SDS011;38063;53.210;6.504;2023-08-06T05:03:01;11.45;;;7.60;;
52057;SDS011;38063;53.210;6.504;2023-08-06T05:05:27;11.77;;;7.72;;
52057;SDS011;38063;53.210;6.504;2023-08-06T05:07:53;10.80;;;7.80;;
52057;SDS011;38063;53.210;6.504;2023-08-06T05:10:21;14.88;;;8.40;;
52057;SDS011;38063;53.210;6.504;2023-08-06T05:12:46;9.40;;;7.82;;
52057;SDS011;38063;53.210;6.504;2023-08-06T05:15:12;10.68;;;7.57;;
52057;SDS011;38063;53.210;6.504;2023-08-06T05:17:38;10.68;;;7.93;;
52057;SDS011;38063;53.210;6.504;2023-08-06T05:20:03;10.90;;;7.07;;
52057;SDS011;38063;53.210;6.504;2023-08-06T05:22:29;10.80;;;8.20;;
52057;SDS011;38063;53.210;6.504;2023-08-06T05:24:55;10.00;;;7.88;;
52057;SDS011;38063;53.210;6.504;2023-08-06T05:27:21;10.85;;;7.72;;
52057;SDS011;38063;53.210;6.504;2023-08-06T05:29:47;11.00;;;7.45;;
52057;SDS011;38063;53.210;6.504;2023-08-06T05:32:13;11.80;;;7.60;;
52057;SDS011;38063;53.210;6.504;2023-08-06T05:34:39;11.38;;;8.23;;
52057;SDS011;38063;53.210;6.504;2023-08-06T05:37:04;13.02;;;9.30;;
52057;SDS011;38063;53.210;6.504;2023-08-06T05:39:30;11.98;;;8.10;;
52057;SDS011;38063;53.210;6.504;2023-08-06T05:41:56;11.80;;;8.25;;
52057;SDS011;38063;53.210;6.504;2023-08-06T05:44:23;13.75;;;8.70;;
52057;SDS011;38063;53.210;6.504;2023-08-06T05:46:49;9.07;;;7.63;;
52057;SDS011;38063;53.210;6.504;2023-08-06T05:49:15;10.18;;;7.90;;
52057;SDS011;38063;53.210;6.504;2023-08-06T05:51:41;11.60;;;8.05;;
52057;SDS011;38063;53.210;6.504;2023-08-06T05:54:07;14.55;;;8.52;;
52057;SDS011;38063;53.210;6.504;2023-08-06T05:56:33;11.73;;;8.50;;
52057;SDS011;38063;53.210;6.504;2023-08-06T05:58:58;10.40;;;8.13;;
52057;SDS011;38063;53.210;6.504;2023-08-06T06:01:24;12.23;;;8.50;;
52057;SDS011;38063;53.210;6.504;2023-08-06T06:03:50;10.43;;;8.30;;
52057;SDS011;38063;53.210;6.504;2023-08-06T06:06:16;15.25;;;8.10;;
52057;SDS011;38063;53.210;6.504;2023-08-06T06:08:44;10.98;;;7.95;;
52057;SDS011;38063;53.210;6.504;2023-08-06T06:11:09;14.68;;;9.32;;
52057;SDS011;38063;53.210;6.504;2023-08-06T06:13:35;12.02;;;8.48;;
52057;SDS011;38063;53.210;6.504;2023-08-06T06:16:01;14.00;;;8.52;;
52057;SDS011;38063;53.210;6.504;2023-08-06T06:18:26;12.55;;;8.48;;
52057;SDS011;38063;53.210;6.504;2023-08-06T06:20:52;13.90;;;8.90;;
52057;SDS011;38063;53.210;6.504;2023-08-06T06:23:17;13.80;;;7.85;;
52057;SDS011;38063;53.210;6.504;2023-08-06T06:25:44;11.27;;;8.02;;
52057;SDS011;38063;53.210;6.504;2023-08-06T06:28:13;9.82;;;8.48;;
52057;SDS011;38063;53.210;6.504;2023-08-06T06:30:38;10.55;;;7.75;;
52057;SDS011;38063;53.210;6.504;2023-08-06T06:33:06;10.50;;;8.07;;
52057;SDS011;38063;53.210;6.504;2023-08-06T06:35:31;11.07;;;7.82;;
52057;SDS011;38063;53.210;6.504;2023-08-06T06:37:57;11.68;;;7.53;;
52057;SDS011;38063;53.210;6.504;2023-08-06T06:40:23;8.50;;;6.82;;
52057;SDS011;38063;53.210;6.504;2023-08-06T06:42:48;11.60;;;6.85;;
52057;SDS011;38063;53.210;6.504;2023-08-06T06:45:14;7.97;;;6.85;;
52057;SDS011;38063;53.210;6.504;2023-08-06T06:47:40;7.72;;;6.20;;
52057;SDS011;38063;53.210;6.504;2023-08-06T06:50:05;7.50;;;6.18;;
52057;SDS011;38063;53.210;6.504;2023-08-06T06:52:31;8.15;;;6.03;;
52057;SDS011;38063;53.210;6.504;2023-08-06T06:54:57;7.28;;;5.95;;
52057;SDS011;38063;53.210;6.504;2023-08-06T06:57:23;10.80;;;6.07;;
52057;SDS011;38063;53.210;6.504;2023-08-06T06:59:48;8.80;;;5.38;;
52057;SDS011;38063;53.210;6.504;2023-08-06T07:02:14;10.90;;;5.82;;
52057;SDS011;38063;53.210;6.504;2023-08-06T07:04:39;6.80;;;5.35;;
52057;SDS011;38063;53.210;6.504;2023-08-06T07:07:05;8.18;;;5.53;;
52057;SDS011;38063;53.210;6.504;2023-08-06T07:09:31;8.02;;;5.00;;
52057;SDS011;38063;53.210;6.504;2023-08-06T07:11:56;8.32;;;5.20;;
52057;SDS011;38063;53.210;6.504;2023-08-06T07:14:24;8.73;;;4.82;;
52057;SDS011;38063;53.210;6.504;2023-08-06T07:16:50;7.75;;;5.22;;
52057;SDS011;38063;53.210;6.504;2023-08-06T07:19:16;9.45;;;5.10;;
52057;SDS011;38063;53.210;6.504;2023-08-06T07:21:42;6.63;;;4.32;;
52057;SDS011;38063;53.210;6.504;2023-08-06T07:24:07;6.75;;;4.57;;
52057;SDS011;38063;53.210;6.504;2023-08-06T07:26:33;6.95;;;4.93;;
52057;SDS011;38063;53.210;6.504;2023-08-06T07:28:58;8.68;;;4.97;;
52057;SDS011;38063;53.210;6.504;2023-08-06T07:31:24;5.75;;;4.90;;
52057;SDS011;38063;53.210;6.504;2023-08-06T07:33:50;6.97;;;4.47;;
52057;SDS011;38063;53.210;6.504;2023-08-06T07:36:16;6.93;;;4.63;;
52057;SDS011;38063;53.210;6.504;2023-08-06T07:38:42;7.97;;;4.45;;
52057;SDS011;38063;53.210;6.504;2023-08-06T07:41:08;6.47;;;5.10;;
52057;SDS011;38063;53.210;6.504;2023-08-06T07:43:34;5.47;;;4.57;;
52057;SDS011;38063;53.210;6.504;2023-08-06T07:46:01;6.57;;;4.75;;
52057;SDS011;38063;53.210;6.504;2023-08-06T07:48:27;8.02;;;4.25;;
52057;SDS011;38063;53.210;6.504;2023-08-06T07:50:53;6.85;;;4.57;;
52057;SDS011;38063;53.210;6.504;2023-08-06T07:53:22;5.50;;;4.20;;
52057;SDS011;38063;53.210;6.504;2023-08-06T07:55:54;5.88;;;4.32;;
52057;SDS011;38063;53.210;6.504;2023-08-06T07:58:20;4.78;;;4.28;;
52057;SDS011;38063;53.210;6.504;2023-08-06T08:00:47;5.05;;;4.45;;
52057;SDS011;38063;53.210;6.504;2023-08-06T08:03:13;5.20;;;3.67;;
52057;SDS011;38063;53.210;6.504;2023-08-06T08:05:40;5.28;;;3.60;;
52057;SDS011;38063;53.210;6.504;2023-08-06T08:08:06;4.40;;;3.50;;
52057;SDS011;38063;53.210;6.504;2023-08-06T08:10:32;3.95;;;3.55;;
52057;SDS011;38063;53.210;6.504;2023-08-06T08:12:59;4.88;;;3.50;;
52057;SDS011;38063;53.210;6.504;2023-08-06T08:15:45;5.18;;;3.08;;
52057;SDS011;38063;53.210;6.504;2023-08-06T08:18:11;4.38;;;2.67;;
52057;SDS011;38063;53.210;6.504;2023-08-06T08:20:38;3.58;;;2.65;;
52057;SDS011;38063;53.210;6.504;2023-08-06T08:23:07;6.03;;;2.90;;
52057;SDS011;38063;53.210;6.504;2023-08-06T08:25:32;4.60;;;2.80;;
52057;SDS011;38063;53.210;6.504;2023-08-06T08:27:59;3.60;;;3.00;;
52057;SDS011;38063;53.210;6.504;2023-08-06T08:30:24;4.32;;;2.85;;
52057;SDS011;38063;53.210;6.504;2023-08-06T08:32:50;5.90;;;2.88;;
52057;SDS011;38063;53.210;6.504;2023-08-06T08:35:16;3.42;;;2.35;;
52057;SDS011;38063;53.210;6.504;2023-08-06T08:37:42;6.65;;;2.15;;
52057;SDS011;38063;53.210;6.504;2023-08-06T08:40:08;3.33;;;2.40;;
52057;SDS011;38063;53.210;6.504;2023-08-06T08:42:35;3.55;;;2.38;;
52057;SDS011;38063;53.210;6.504;2023-08-06T08:45:02;3.92;;;2.15;;
52057;SDS011;38063;53.210;6.504;2023-08-06T08:47:29;4.22;;;2.10;;
52057;SDS011;38063;53.210;6.504;2023-08-06T08:49:56;2.63;;;1.80;;
52057;SDS011;38063;53.210;6.504;2023-08-06T08:52:23;5.00;;;2.47;;
52057;SDS011;38063;53.210;6.504;2023-08-06T08:54:50;2.20;;;1.60;;
52057;SDS011;38063;53.210;6.504;2023-08-06T08:57:18;3.63;;;2.03;;
52057;SDS011;38063;53.210;6.504;2023-08-06T08:59:45;4.72;;;1.98;;
52057;SDS011;38063;53.210;6.504;2023-08-06T09:02:11;2.17;;;1.83;;
52057;SDS011;38063;53.210;6.504;2023-08-06T09:04:40;2.30;;;1.80;;
52057;SDS011;38063;53.210;6.504;2023-08-06T09:07:06;3.75;;;2.15;;
52057;SDS011;38063;53.210;6.504;2023-08-06T09:09:36;3.25;;;1.75;;
52057;SDS011;38063;53.210;6.504;2023-08-06T09:12:13;4.22;;;2.13;;
52057;SDS011;38063;53.210;6.504;2023-08-06T09:14:40;2.25;;;1.95;;
52057;SDS011;38063;53.210;6.504;2023-08-06T09:17:07;3.38;;;1.77;;
52057;SDS011;38063;53.210;6.504;2023-08-06T09:19:34;2.72;;;1.98;;
52057;SDS011;38063;53.210;6.504;2023-08-06T09:21:59;3.35;;;1.70;;
52057;SDS011;38063;53.210;6.504;2023-08-06T09:24:25;2.22;;;1.50;;
52057;SDS011;38063;53.210;6.504;2023-08-06T09:26:54;3.60;;;1.60;;
52057;SDS011;38063;53.210;6.504;2023-08-06T09:29:20;5.32;;;1.70;;
52057;SDS011;38063;53.210;6.504;2023-08-06T09:31:49;2.60;;;1.58;;
52057;SDS011;38063;53.210;6.504;2023-08-06T09:34:18;4.10;;;1.55;;
52057;SDS011;38063;53.210;6.504;2023-08-06T09:36:54;3.22;;;1.90;;
52057;SDS011;38063;53.210;6.504;2023-08-06T09:39:20;2.03;;;1.40;;
52057;SDS011;38063;53.210;6.504;2023-08-06T09:41:47;3.90;;;1.80;;
52057;SDS011;38063;53.210;6.504;2023-08-06T09:44:20;2.45;;;1.70;;
52057;SDS011;38063;53.210;6.504;2023-08-06T09:46:49;2.80;;;1.60;;
52057;SDS011;38063;53.210;6.504;2023-08-06T09:49:25;3.65;;;1.70;;
52057;SDS011;38063;53.210;6.504;2023-08-06T09:51:52;1.80;;;1.42;;
52057;SDS011;38063;53.210;6.504;2023-08-06T09:54:22;3.08;;;1.83;;
52057;SDS011;38063;53.210;6.504;2023-08-06T09:56:49;4.18;;;1.65;;
52057;SDS011;38063;53.210;6.504;2023-08-06T09:59:19;2.42;;;1.27;;
52057;SDS011;38063;53.210;6.504;2023-08-06T10:01:46;2.72;;;1.60;;
52057;SDS011;38063;53.210;6.504;2023-08-06T10:04:14;3.90;;;1.55;;
52057;SDS011;38063;53.210;6.504;2023-08-06T10:06:41;2.85;;;1.58;;
52057;SDS011;38063;53.210;6.504;2023-08-06T10:09:08;3.17;;;1.45;;
52057;SDS011;38063;53.210;6.504;2023-08-06T10:11:35;1.67;;;1.33;;
52057;SDS011;38063;53.210;6.504;2023-08-06T10:14:10;2.33;;;1.63;;
52057;SDS011;38063;53.210;6.504;2023-08-06T10:16:37;3.38;;;1.50;;
52057;SDS011;38063;53.210;6.504;2023-08-06T10:19:05;3.33;;;1.50;;
52057;SDS011;38063;53.210;6.504;2023-08-06T10:21:34;2.08;;;1.52;;
52057;SDS011;38063;53.210;6.504;2023-08-06T10:23:59;2.28;;;1.70;;
52057;SDS011;38063;53.210;6.504;2023-08-06T10:26:27;2.28;;;1.58;;
52057;SDS011;38063;53.210;6.504;2023-08-06T10:28:53;3.38;;;1.60;;
52057;SDS011;38063;53.210;6.504;2023-08-06T10:31:19;2.35;;;1.60;;
52057;SDS011;38063;53.210;6.504;2023-08-06T10:33:48;3.95;;;1.70;;
52057;SDS011;38063;53.210;6.504;2023-08-06T10:36:14;2.25;;;1.45;;
52057;SDS011;38063;53.210;6.504;2023-08-06T10:38:44;3.78;;;1.85;;
52057;SDS011;38063;53.210;6.504;2023-08-06T10:41:27;3.95;;;1.50;;
52057;SDS011;38063;53.210;6.504;2023-08-06T10:44:05;4.00;;;1.83;;
52057;SDS011;38063;53.210;6.504;2023-08-06T10:46:34;3.60;;;1.70;;
52057;SDS011;38063;53.210;6.504;2023-08-06T10:49:01;3.08;;;2.05;;
52057;SDS011;38063;53.210;6.504;2023-08-06T10:51:27;4.63;;;1.33;;
52057;SDS011;38063;53.210;6.504;2023-08-06T10:53:53;5.43;;;3.28;;
52057;SDS011;38063;53.210;6.504;2023-08-06T10:56:22;4.13;;;1.95;;
52057;SDS011;38063;53.210;6.504;2023-08-06T10:58:52;2.55;;;1.88;;
52057;SDS011;38063;53.210;6.504;2023-08-06T11:01:20;3.15;;;1.73;;
52057;SDS011;38063;53.210;6.504;2023-08-06T11:03:47;2.40;;;1.60;;
52057;SDS011;38063;53.210;6.504;2023-08-06T11:06:18;2.88;;;1.85;;
52057;SDS011;38063;53.210;6.504;2023-08-06T11:08:51;3.03;;;1.55;;
52057;SDS011;38063;53.210;6.504;2023-08-06T11:11:18;2.15;;;1.60;;
52057;SDS011;38063;53.210;6.504;2023-08-06T11:13:46;2.45;;;1.30;;
52057;SDS011;38063;53.210;6.504;2023-08-06T11:16:13;2.80;;;1.70;;
52057;SDS011;38063;53.210;6.504;2023-08-06T11:18:40;3.40;;;1.70;;
52057;SDS011;38063;53.210;6.504;2023-08-06T11:21:07;2.47;;;1.52;;
52057;SDS011;38063;53.210;6.504;2023-08-06T11:23:33;2.78;;;1.77;;
52057;SDS011;38063;53.210;6.504;2023-08-06T11:25:59;1.73;;;1.08;;
52057;SDS011;38063;53.210;6.504;2023-08-06T11:28:26;1.85;;;1.35;;
52057;SDS011;38063;53.210;6.504;2023-08-06T11:30:52;3.03;;;1.70;;
52057;SDS011;38063;53.210;6.504;2023-08-06T11:33:29;2.30;;;1.42;;
52057;SDS011;38063;53.210;6.504;2023-08-06T11:35:55;1.98;;;1.40;;
52057;SDS011;38063;53.210;6.504;2023-08-06T11:38:26;2.00;;;1.33;;
52057;SDS011;38063;53.210;6.504;2023-08-06T11:40:54;7.28;;;1.70;;
52057;SDS011;38063;53.210;6.504;2023-08-06T11:43:20;2.42;;;1.35;;
52057;SDS011;38063;53.210;6.504;2023-08-06T11:45:47;3.58;;;1.80;;
52057;SDS011;38063;53.210;6.504;2023-08-06T11:48:14;2.22;;;1.73;;
52057;SDS011;38063;53.210;6.504;2023-08-06T11:50:40;4.03;;;1.95;;
52057;SDS011;38063;53.210;6.504;2023-08-06T11:53:05;2.13;;;1.50;;
52057;SDS011;38063;53.210;6.504;2023-08-06T11:55:32;2.28;;;1.60;;
52057;SDS011;38063;53.210;6.504;2023-08-06T11:57:58;3.78;;;1.75;;
52057;SDS011;38063;53.210;6.504;2023-08-06T12:00:28;3.03;;;1.75;;
52057;SDS011;38063;53.210;6.504;2023-08-06T12:02:54;2.55;;;1.83;;
52057;SDS011;38063;53.210;6.504;2023-08-06T12:05:22;3.08;;;1.80;;
52057;SDS011;38063;53.210;6.504;2023-08-06T12:07:50;4.03;;;1.60;;
52057;SDS011;38063;53.210;6.504;2023-08-06T12:10:20;1.88;;;1.50;;
52057;SDS011;38063;53.210;6.504;2023-08-06T12:12:47;2.70;;;2.00;;
52057;SDS011;38063;53.210;6.504;2023-08-06T12:15:13;3.35;;;1.63;;
52057;SDS011;38063;53.210;6.504;2023-08-06T12:17:39;1.95;;;1.30;;
52057;SDS011;38063;53.210;6.504;2023-08-06T12:20:06;2.83;;;1.60;;
52057;SDS011;38063;53.210;6.504;2023-08-06T12:22:32;5.10;;;2.25;;
52057;SDS011;38063;53.210;6.504;2023-08-06T12:25:04;4.63;;;1.40;;
52057;SDS011;38063;53.210;6.504;2023-08-06T12:27:34;3.65;;;1.98;;
52057;SDS011;38063;53.210;6.504;2023-08-06T12:30:00;2.60;;;1.70;;
52057;SDS011;38063;53.210;6.504;2023-08-06T12:32:26;2.20;;;1.50;;
52057;SDS011;38063;53.210;6.504;2023-08-06T12:34:52;2.75;;;1.55;;
52057;SDS011;38063;53.210;6.504;2023-08-06T12:37:17;1.90;;;1.33;;
52057;SDS011;38063;53.210;6.504;2023-08-06T12:39:43;3.53;;;1.60;;
52057;SDS011;38063;53.210;6.504;2023-08-06T12:42:09;2.30;;;1.50;;
52057;SDS011;38063;53.210;6.504;2023-08-06T12:44:35;4.68;;;1.50;;
52057;SDS011;38063;53.210;6.504;2023-08-06T12:47:01;2.60;;;1.60;;
52057;SDS011;38063;53.210;6.504;2023-08-06T12:49:27;2.63;;;1.52;;
52057;SDS011;38063;53.210;6.504;2023-08-06T12:51:53;4.03;;;1.52;;
52057;SDS011;38063;53.210;6.504;2023-08-06T12:54:20;4.03;;;1.50;;
52057;SDS011;38063;53.210;6.504;2023-08-06T12:56:46;2.72;;;1.60;;
52057;SDS011;38063;53.210;6.504;2023-08-06T12:59:15;3.38;;;1.70;;
52057;SDS011;38063;53.210;6.504;2023-08-06T13:01:42;4.18;;;1.80;;
52057;SDS011;38063;53.210;6.504;2023-08-06T13:04:08;3.72;;;1.73;;
52057;SDS011;38063;53.210;6.504;2023-08-06T13:06:34;2.97;;;1.45;;
52057;SDS011;38063;53.210;6.504;2023-08-06T13:09:04;3.33;;;1.50;;
52057;SDS011;38063;53.210;6.504;2023-08-06T13:11:36;1.85;;;1.52;;
52057;SDS011;38063;53.210;6.504;2023-08-06T13:14:06;3.15;;;1.52;;
52057;SDS011;38063;53.210;6.504;2023-08-06T13:16:36;3.78;;;1.60;;
52057;SDS011;38063;53.210;6.504;2023-08-06T13:19:04;2.10;;;1.35;;
52057;SDS011;38063;53.210;6.504;2023-08-06T13:21:34;2.88;;;1.63;;
52057;SDS011;38063;53.210;6.504;2023-08-06T13:31:23;1.92;;;1.45;;
52057;SDS011;38063;53.210;6.504;2023-08-06T13:33:49;2.08;;;1.40;;
52057;SDS011;38063;53.210;6.504;2023-08-06T13:36:15;2.25;;;1.80;;
52057;SDS011;38063;53.210;6.504;2023-08-06T13:38:41;2.67;;;1.48;;
52057;SDS011;38063;53.210;6.504;2023-08-06T13:41:07;2.97;;;1.55;;
52057;SDS011;38063;53.210;6.504;2023-08-06T13:43:33;3.40;;;1.50;;
52057;SDS011;38063;53.210;6.504;2023-08-06T13:45:58;4.28;;;1.50;;
52057;SDS011;38063;53.210;6.504;2023-08-06T13:48:24;2.85;;;1.55;;
52057;SDS011;38063;53.210;6.504;2023-08-06T13:50:50;1.55;;;1.20;;
52057;SDS011;38063;53.210;6.504;2023-08-06T13:53:16;2.38;;;1.65;;
52057;SDS011;38063;53.210;6.504;2023-08-06T13:55:41;2.97;;;1.60;;
52057;SDS011;38063;53.210;6.504;2023-08-06T13:58:07;2.25;;;1.30;;
52057;SDS011;38063;53.210;6.504;2023-08-06T14:00:33;2.25;;;1.30;;
52057;SDS011;38063;53.210;6.504;2023-08-06T14:03:00;2.25;;;1.30;;
52057;SDS011;38063;53.210;6.504;2023-08-06T14:05:26;2.28;;;1.52;;
52057;SDS011;38063;53.210;6.504;2023-08-06T14:07:52;1.83;;;1.23;;
52057;SDS011;38063;53.210;6.504;2023-08-06T14:10:17;4.57;;;1.63;;
52057;SDS011;38063;53.210;6.504;2023-08-06T14:12:43;2.78;;;1.35;;
52057;SDS011;38063;53.210;6.504;2023-08-06T14:15:09;2.97;;;1.60;;
52057;SDS011;38063;53.210;6.504;2023-08-06T14:17:35;1.70;;;1.30;;
52057;SDS011;38063;53.210;6.504;2023-08-06T14:20:01;1.98;;;1.40;;
52057;SDS011;38063;53.210;6.504;2023-08-06T14:22:29;3.05;;;1.30;;
52057;SDS011;38063;53.210;6.504;2023-08-06T14:24:58;2.30;;;1.30;;
52057;SDS011;38063;53.210;6.504;2023-08-06T14:27:24;2.65;;;1.30;;
52057;SDS011;38063;53.210;6.504;2023-08-06T14:29:50;4.20;;;1.45;;
52057;SDS011;38063;53.210;6.504;2023-08-06T14:32:16;2.33;;;1.33;;
52057;SDS011;38063;53.210;6.504;2023-08-06T14:34:43;3.83;;;1.45;;
52057;SDS011;38063;53.210;6.504;2023-08-06T14:37:09;1.85;;;1.05;;
52057;SDS011;38063;53.210;6.504;2023-08-06T14:39:36;2.13;;;1.13;;
52057;SDS011;38063;53.210;6.504;2023-08-06T14:42:02;1.67;;;1.30;;
52057;SDS011;38063;53.210;6.504;2023-08-06T14:44:28;3.00;;;1.48;;
52057;SDS011;38063;53.210;6.504;2023-08-06T14:46:54;2.15;;;1.40;;
52057;SDS011;38063;53.210;6.504;2023-08-06T14:49:20;2.20;;;1.50;;